createdAt,value
2017-11-09T00:02:04.844Z,9.10
2017-11-09T00:04:39.675Z,9.10
2017-11-09T00:07:08.963Z,9.10
2017-11-09T00:09:38.199Z,9.10
2017-11-09T00:12:07.474Z,9.20
2017-11-09T00:14:36.755Z,9.10
2017-11-09T00:17:06.313Z,9.10
2017-11-09T00:19:35.587Z,9.10
2017-11-09T00:22:04.893Z,9.10
2017-11-09T00:24:34.147Z,9.10
2017-11-09T00:27:03.391Z,9.10
2017-11-09T00:29:32.659Z,9.10
2017-11-09T00:32:01.906Z,9.10
2017-11-09T00:34:31.155Z,9.00
2017-11-09T00:37:00.475Z,9.10
2017-11-09T00:39:30.492Z,9.00
2017-11-09T00:41:59.897Z,9.00
2017-11-09T00:44:29.904Z,9.00
2017-11-09T00:46:59.179Z,8.90
2017-11-09T00:49:28.635Z,9.00
2017-11-09T00:51:58.032Z,8.90
2017-11-09T00:54:27.299Z,8.90
2017-11-09T00:56:56.560Z,9.00
2017-11-09T00:59:25.861Z,9.00
2017-11-09T01:01:55.099Z,9.00
2017-11-09T01:04:24.427Z,9.00
2017-11-09T01:06:54.448Z,9.00
2017-11-09T01:09:23.695Z,8.90
2017-11-09T01:11:52.988Z,8.90
2017-11-09T01:14:22.257Z,9.00
2017-11-09T01:16:51.754Z,9.00
2017-11-09T01:19:21.788Z,8.90
2017-11-09T01:21:51.038Z,8.90
2017-11-09T01:24:20.312Z,8.90
2017-11-09T01:26:49.564Z,8.90
2017-11-09T01:29:19.590Z,8.90
2017-11-09T01:31:48.874Z,8.80
2017-11-09T01:34:18.129Z,8.90
2017-11-09T01:36:47.651Z,8.90
2017-11-09T01:39:16.930Z,8.90
2017-11-09T01:41:46.204Z,8.90
2017-11-09T01:44:16.253Z,8.80
2017-11-09T01:46:45.492Z,8.80
2017-11-09T01:49:14.761Z,8.80
2017-11-09T01:51:43.997Z,8.90
2017-11-09T01:54:13.270Z,8.90
2017-11-09T01:56:42.520Z,8.90
2017-11-09T01:59:11.822Z,8.80
2017-11-09T02:01:41.070Z,8.80
2017-11-09T02:04:10.316Z,8.70
2017-11-09T02:06:40.343Z,8.60
2017-11-09T02:09:09.752Z,8.60
2017-11-09T02:11:39.788Z,8.70
2017-11-09T02:14:09.063Z,8.70
2017-11-09T02:16:38.523Z,8.70
2017-11-09T02:19:07.792Z,8.70
2017-11-09T02:21:37.068Z,8.70
2017-11-09T02:24:07.111Z,8.70
2017-11-09T02:26:36.384Z,8.70
2017-11-09T02:29:05.653Z,8.80
2017-11-09T02:31:34.912Z,8.80
2017-11-09T02:34:04.387Z,8.80
2017-11-09T02:36:33.699Z,8.80
2017-11-09T02:39:03.799Z,8.90
2017-11-09T02:41:33.058Z,8.80
2017-11-09T02:44:02.424Z,8.90
2017-11-09T02:46:32.489Z,8.90
2017-11-09T02:49:01.759Z,8.90
2017-11-09T02:51:31.022Z,8.90
2017-11-09T02:54:00.275Z,8.90
2017-11-09T02:56:29.557Z,8.90
2017-11-09T02:58:59.580Z,9.00
2017-11-09T03:01:28.855Z,8.90
2017-11-09T03:03:58.282Z,9.00
2017-11-09T03:06:27.527Z,8.90
2017-11-09T03:08:56.863Z,9.00
2017-11-09T03:11:27.187Z,8.90
2017-11-09T03:13:57.247Z,9.00
2017-11-09T03:16:26.614Z,9.00
2017-11-09T03:18:56.649Z,9.10
2017-11-09T03:21:25.935Z,9.00
2017-11-09T03:23:55.184Z,9.10
2017-11-09T03:26:24.468Z,9.00
2017-11-09T03:28:53.721Z,9.10
2017-11-09T03:31:23.660Z,9.10
2017-11-09T03:33:55.249Z,9.10
2017-11-09T03:36:25.523Z,9.10
2017-11-09T03:38:54.779Z,9.10
2017-11-09T03:41:24.033Z,9.10
2017-11-09T03:43:53.309Z,9.10
2017-11-09T03:46:22.744Z,9.20
2017-11-09T03:48:52.772Z,9.20
2017-11-09T03:51:22.039Z,9.20
2017-11-09T03:53:52.067Z,9.20
2017-11-09T03:56:22.219Z,9.00
2017-11-09T03:58:51.494Z,9.00
2017-11-09T04:01:21.811Z,9.10
2017-11-09T04:03:51.092Z,9.10
2017-11-09T04:06:20.490Z,9.20
2017-11-09T04:08:49.849Z,9.20
2017-11-09T04:11:19.100Z,9.30
2017-11-09T04:13:48.367Z,9.30
2017-11-09T04:16:17.770Z,9.30
2017-11-09T04:18:47.130Z,9.30
2017-11-09T04:21:17.184Z,9.30
2017-11-09T04:23:46.548Z,9.30
2017-11-09T04:26:15.869Z,9.30
2017-11-09T04:28:45.983Z,9.20
2017-11-09T04:31:16.021Z,9.20
2017-11-09T04:33:45.275Z,9.20
2017-11-09T04:36:16.042Z,9.10
2017-11-09T04:38:45.537Z,9.10
2017-11-09T04:41:14.942Z,9.20
2017-11-09T04:43:44.974Z,9.20
2017-11-09T04:46:14.223Z,9.20
2017-11-09T04:48:43.589Z,9.20
2017-11-09T04:51:12.847Z,9.10
2017-11-09T04:53:43.616Z,9.10
2017-11-09T04:56:13.025Z,9.10
2017-11-09T04:58:43.149Z,9.10
2017-11-09T05:01:12.434Z,9.10
2017-11-09T05:03:41.848Z,9.00
2017-11-09T05:06:11.412Z,9.00
2017-11-09T05:08:40.644Z,9.10
2017-11-09T05:11:09.923Z,9.00
2017-11-09T05:13:39.179Z,9.10
2017-11-09T05:16:08.430Z,9.10
2017-11-09T05:18:37.739Z,9.10
2017-11-09T05:21:07.856Z,9.10
2017-11-09T05:23:37.160Z,9.10
2017-11-09T05:26:06.399Z,9.20
2017-11-09T05:28:35.639Z,9.20
2017-11-09T05:31:04.922Z,9.20
2017-11-09T05:33:34.163Z,9.20
2017-11-09T05:36:03.430Z,9.10
2017-11-09T05:38:32.755Z,9.10
2017-11-09T05:41:02.051Z,9.10
2017-11-09T05:43:31.328Z,9.10
2017-11-09T05:46:00.587Z,9.10
2017-11-09T05:48:29.841Z,9.10
2017-11-09T05:50:59.232Z,9.20
2017-11-09T05:53:28.482Z,9.30
2017-11-09T05:55:57.737Z,9.30
2017-11-09T05:58:27.171Z,9.30
2017-11-09T06:00:56.430Z,9.30
2017-11-09T06:03:25.904Z,9.30
2017-11-09T06:05:55.141Z,9.20
2017-11-09T06:08:24.579Z,9.20
2017-11-09T06:10:53.913Z,9.20
2017-11-09T06:13:23.213Z,9.10
2017-11-09T06:15:52.581Z,9.20
2017-11-09T06:18:21.851Z,9.20
2017-11-09T06:20:51.139Z,9.20
2017-11-09T06:23:20.373Z,9.20
2017-11-09T06:25:49.650Z,9.20
2017-11-09T06:28:18.989Z,9.10
2017-11-09T06:30:48.286Z,9.10
2017-11-09T06:33:17.553Z,9.10
2017-11-09T06:35:46.899Z,9.10
2017-11-09T06:38:16.179Z,9.10
2017-11-09T06:40:45.444Z,9.00
2017-11-09T06:43:15.045Z,9.10
2017-11-09T06:45:45.080Z,9.10
2017-11-09T06:48:14.399Z,9.10
2017-11-09T06:50:43.675Z,9.10
2017-11-09T06:53:12.920Z,9.00
2017-11-09T06:55:42.171Z,9.00
2017-11-09T06:58:11.433Z,9.00
2017-11-09T07:00:40.731Z,9.10
2017-11-09T07:03:10.762Z,9.10
2017-11-09T07:05:40.152Z,9.10
2017-11-09T07:08:09.436Z,9.10
2017-11-09T07:10:38.668Z,9.00
2017-11-09T07:13:08.063Z,8.90
2017-11-09T07:15:38.090Z,8.70
2017-11-09T07:18:07.352Z,8.70
2017-11-09T07:20:36.603Z,8.70
2017-11-09T07:23:05.850Z,8.80
2017-11-09T07:25:35.104Z,8.70
2017-11-09T07:28:04.371Z,8.80
2017-11-09T07:30:33.648Z,8.90
2017-11-09T07:33:02.907Z,9.00
2017-11-09T07:35:32.170Z,9.10
2017-11-09T07:38:01.495Z,9.10
2017-11-09T07:40:31.524Z,9.30
2017-11-09T07:43:00.796Z,9.30
2017-11-09T07:45:30.066Z,9.40
2017-11-09T07:47:59.892Z,9.50
2017-11-09T07:50:29.139Z,9.60
2017-11-09T07:52:58.523Z,9.70
2017-11-09T07:55:27.924Z,9.80
2017-11-09T07:57:57.193Z,9.90
2017-11-09T08:00:26.469Z,10.00
2017-11-09T08:02:55.843Z,10.10
2017-11-09T08:05:25.104Z,10.10
2017-11-09T08:07:54.349Z,10.20
2017-11-09T08:10:23.620Z,10.20
2017-11-09T08:12:52.867Z,10.30
2017-11-09T08:15:22.478Z,10.30
2017-11-09T08:17:51.739Z,10.30
2017-11-09T08:20:21.776Z,10.30
2017-11-09T08:22:51.056Z,10.30
2017-11-09T08:25:23.300Z,10.30
2017-11-09T08:27:55.508Z,10.40
2017-11-09T08:30:28.812Z,10.40
2017-11-09T08:33:00.852Z,10.40
2017-11-09T08:35:30.372Z,10.30
2017-11-09T08:38:00.404Z,10.50
2017-11-09T08:40:29.690Z,10.50
2017-11-09T08:42:58.947Z,10.60
2017-11-09T08:45:28.309Z,10.50
2017-11-09T08:47:57.766Z,10.60
2017-11-09T08:50:27.217Z,10.60
2017-11-09T08:52:56.710Z,10.60
2017-11-09T08:55:26.803Z,10.60
2017-11-09T08:57:56.190Z,10.60
2017-11-09T09:00:25.452Z,10.70
2017-11-09T09:02:54.798Z,10.60
2017-11-09T09:05:24.080Z,10.60
2017-11-09T09:07:53.366Z,10.60
2017-11-09T09:10:23.490Z,10.60
2017-11-09T09:12:52.820Z,10.50
2017-11-09T09:15:22.104Z,10.50
2017-11-09T09:17:51.371Z,10.40
2017-11-09T09:20:20.748Z,10.30
2017-11-09T09:22:57.576Z,10.30
2017-11-09T09:25:28.764Z,10.40
2017-11-09T09:27:58.993Z,10.40
2017-11-09T09:30:28.674Z,10.30
2017-11-09T09:33:03.523Z,10.40
2017-11-09T09:35:48.247Z,10.50
2017-11-09T09:38:24.404Z,10.40
2017-11-09T09:41:01.288Z,10.60
2017-11-09T09:43:30.547Z,10.60
2017-11-09T09:45:59.808Z,10.60
2017-11-09T09:48:29.112Z,10.50
2017-11-09T09:50:58.375Z,10.60
2017-11-09T09:53:27.678Z,10.60
2017-11-09T09:55:56.961Z,10.60
2017-11-09T09:58:27.000Z,10.60
2017-11-09T10:00:56.288Z,10.60
2017-11-09T10:03:25.555Z,10.60
2017-11-09T10:05:54.840Z,10.70
2017-11-09T10:08:24.169Z,10.70
2017-11-09T10:10:53.589Z,10.70
2017-11-09T10:13:24.041Z,10.70
2017-11-09T10:15:53.275Z,10.70
2017-11-09T10:18:22.566Z,10.70
2017-11-09T10:20:51.977Z,10.70
2017-11-09T10:23:22.162Z,10.70
2017-11-09T10:25:51.478Z,10.80
2017-11-09T10:28:20.766Z,10.80
2017-11-09T10:30:50.045Z,10.80
2017-11-09T10:33:20.738Z,10.60
2017-11-09T10:35:50.014Z,10.70
2017-11-09T10:38:19.284Z,10.60
2017-11-09T10:43:23.967Z,10.50
2017-11-09T10:45:53.426Z,10.50
2017-11-09T10:48:23.516Z,10.40
2017-11-09T10:50:52.780Z,10.40
2017-11-09T10:53:22.067Z,10.40
2017-11-09T10:55:51.348Z,10.40
2017-11-09T10:58:20.619Z,10.30
2017-11-09T11:00:49.898Z,10.30
2017-11-09T11:03:19.924Z,10.30
2017-11-09T11:05:49.929Z,10.30
2017-11-09T11:08:19.344Z,10.30
2017-11-09T11:10:48.715Z,10.30
2017-11-09T11:13:18.746Z,10.30
2017-11-09T11:15:48.141Z,10.30
2017-11-09T11:18:18.201Z,10.30
2017-11-09T11:20:47.511Z,10.30
2017-11-09T11:23:16.776Z,10.40
2017-11-09T11:25:46.023Z,10.40
2017-11-09T11:28:15.336Z,10.40
2017-11-09T11:30:46.114Z,10.60
2017-11-09T11:33:15.525Z,10.60
2017-11-09T11:35:44.796Z,10.70
2017-11-09T11:38:14.830Z,10.80
2017-11-09T11:40:44.259Z,10.80
2017-11-09T11:43:13.487Z,10.80
2017-11-09T11:45:42.784Z,10.90
2017-11-09T11:48:12.143Z,10.90
2017-11-09T11:50:41.460Z,11.00
2017-11-09T11:53:10.845Z,11.10
2017-11-09T11:55:40.135Z,11.20
2017-11-09T11:58:09.400Z,11.30
2017-11-09T12:00:38.824Z,11.40
2017-11-09T12:03:12.536Z,11.40
2017-11-09T12:05:41.947Z,11.40
2017-11-09T12:08:11.246Z,11.50
2017-11-09T12:10:41.271Z,11.60
2017-11-09T12:13:10.564Z,11.50
2017-11-09T12:15:39.815Z,11.60
2017-11-09T12:18:09.389Z,11.60
2017-11-09T12:20:38.668Z,11.70
2017-11-09T12:23:07.927Z,11.70
2017-11-09T12:25:37.220Z,11.70
2017-11-09T12:28:06.571Z,11.60
2017-11-09T12:30:35.854Z,11.60
2017-11-09T12:33:05.135Z,11.50
2017-11-09T12:35:34.419Z,11.50
2017-11-09T12:38:03.700Z,11.50
2017-11-09T12:40:32.997Z,11.50
2017-11-09T12:43:02.400Z,11.40
2017-11-09T12:45:31.678Z,11.40
2017-11-09T12:48:00.987Z,11.40
2017-11-09T12:50:30.268Z,11.40
2017-11-09T12:52:59.528Z,11.30
2017-11-09T12:55:28.787Z,11.20
2017-11-09T12:57:58.828Z,10.80
2017-11-09T13:00:28.125Z,10.80
2017-11-09T13:02:57.379Z,10.80
2017-11-09T13:05:26.649Z,10.80
2017-11-09T13:07:55.932Z,10.90
2017-11-09T13:10:26.034Z,11.00
2017-11-09T13:12:56.127Z,11.10
2017-11-09T13:15:25.391Z,11.10
2017-11-09T13:17:54.875Z,11.20
2017-11-09T13:20:24.130Z,11.20
2017-11-09T13:22:53.496Z,11.20
2017-11-09T13:25:22.783Z,11.20
2017-11-09T13:27:52.047Z,11.30
2017-11-09T13:30:21.328Z,11.40
2017-11-09T13:32:50.591Z,11.30
2017-11-09T13:35:19.881Z,11.20
2017-11-09T13:37:49.355Z,11.30
2017-11-09T13:40:18.776Z,11.30
2017-11-09T13:42:49.978Z,11.30
2017-11-09T13:45:19.239Z,11.30
2017-11-09T13:47:48.499Z,11.20
2017-11-09T13:50:17.786Z,11.20
2017-11-09T13:52:47.047Z,11.10
2017-11-09T13:55:16.315Z,11.00
2017-11-09T13:57:46.371Z,10.90
2017-11-09T14:00:15.662Z,10.90
2017-11-09T14:02:45.049Z,11.00
2017-11-09T14:05:15.164Z,11.00
2017-11-09T14:07:44.645Z,11.00
2017-11-09T14:10:13.993Z,10.90
2017-11-09T14:12:43.215Z,10.80
2017-11-09T14:15:12.581Z,10.70
2017-11-09T14:17:41.891Z,10.60
2017-11-09T14:20:11.151Z,10.50
2017-11-09T14:22:40.482Z,10.40
2017-11-09T14:25:10.511Z,10.30
2017-11-09T14:27:39.803Z,10.30
2017-11-09T14:30:09.080Z,10.40
2017-11-09T14:32:38.335Z,10.40
2017-11-09T14:35:07.623Z,10.50
2017-11-09T14:37:37.845Z,10.40
2017-11-09T14:40:07.114Z,10.40
2017-11-09T14:42:36.383Z,10.40
2017-11-09T14:45:05.647Z,10.40
2017-11-09T14:47:34.941Z,10.40
2017-11-09T14:50:04.254Z,10.40
2017-11-09T14:52:34.357Z,10.10
2017-11-09T14:55:03.883Z,10.10
2017-11-09T14:57:33.372Z,10.20
2017-11-09T15:00:02.625Z,10.20
2017-11-09T15:02:31.988Z,10.20
2017-11-09T15:05:02.000Z,10.20
2017-11-09T15:07:31.292Z,10.20
2017-11-09T15:10:00.791Z,10.20
2017-11-09T15:12:30.099Z,10.20
2017-11-09T15:14:59.504Z,10.20
2017-11-09T15:17:29.548Z,10.10
2017-11-09T15:19:58.876Z,10.10
2017-11-09T15:22:28.125Z,10.10
2017-11-09T15:24:57.398Z,10.20
2017-11-09T15:27:26.684Z,10.20
2017-11-09T15:29:56.051Z,10.10
2017-11-09T15:32:39.671Z,10.10
2017-11-09T15:35:11.641Z,10.10
2017-11-09T15:37:40.944Z,10.10
2017-11-09T15:40:10.246Z,10.10
2017-11-09T15:42:40.990Z,10.00
2017-11-09T15:45:10.276Z,10.00
2017-11-09T15:47:39.535Z,9.90
2017-11-09T15:50:10.470Z,9.70
2017-11-09T15:52:39.757Z,9.70
2017-11-09T15:55:09.028Z,9.60
2017-11-09T15:57:38.290Z,9.50
2017-11-09T16:00:07.548Z,9.50
2017-11-09T16:02:36.952Z,9.60
2017-11-09T16:05:06.219Z,9.70
2017-11-09T16:07:39.216Z,9.80
2017-11-09T16:10:09.253Z,9.80
2017-11-09T16:12:38.521Z,9.80
2017-11-09T16:15:07.878Z,9.80
2017-11-09T16:17:37.156Z,9.80
2017-11-09T16:20:06.442Z,9.80
2017-11-09T16:22:35.734Z,9.80
2017-11-09T16:25:05.001Z,9.80
2017-11-09T16:27:35.787Z,9.80
2017-11-09T16:30:09.855Z,9.70
2017-11-09T16:32:39.171Z,9.70
2017-11-09T16:35:09.208Z,9.70
2017-11-09T16:37:38.723Z,9.60
2017-11-09T16:40:07.996Z,9.60
2017-11-09T16:42:37.249Z,9.60
2017-11-09T16:45:06.505Z,9.60
2017-11-09T16:47:36.551Z,9.50
2017-11-09T16:50:05.814Z,9.50
2017-11-09T16:52:40.863Z,9.30
2017-11-09T16:55:10.126Z,9.30
2017-11-09T16:57:42.064Z,9.30
2017-11-09T17:00:11.324Z,9.40
2017-11-09T17:02:40.666Z,9.30
2017-11-09T17:05:09.943Z,9.10
2017-11-09T17:07:39.528Z,9.00
2017-11-09T17:10:09.580Z,8.80
2017-11-09T17:12:38.840Z,8.70
2017-11-09T17:15:11.622Z,8.50
2017-11-09T17:17:40.905Z,8.50
2017-11-09T17:20:10.136Z,8.30
2017-11-09T17:22:39.674Z,8.10
2017-11-09T17:25:08.961Z,7.80
2017-11-09T17:27:38.268Z,7.60
2017-11-09T17:30:07.540Z,7.50
2017-11-09T17:32:36.833Z,7.40
2017-11-09T17:35:06.161Z,7.10
2017-11-09T17:37:36.186Z,6.90
2017-11-09T17:40:06.293Z,6.80
2017-11-09T17:42:40.868Z,6.70
2017-11-09T17:45:10.120Z,6.60
2017-11-09T17:47:39.373Z,6.40
2017-11-09T17:50:08.657Z,6.40
2017-11-09T17:52:37.937Z,6.30
2017-11-09T17:55:07.965Z,6.20
2017-11-09T17:57:37.233Z,6.20
2017-11-09T18:00:12.026Z,6.20
2017-11-09T18:02:41.311Z,6.20
2017-11-09T18:05:10.582Z,6.10
2017-11-09T18:07:40.608Z,5.90
2017-11-09T18:10:09.871Z,5.90
2017-11-09T18:12:39.217Z,5.90
2017-11-09T18:15:08.454Z,5.80
2017-11-09T18:17:37.716Z,5.80
2017-11-09T18:20:07.740Z,5.60
2017-11-09T18:22:36.987Z,5.60
2017-11-09T18:25:06.244Z,5.50
2017-11-09T18:27:35.515Z,5.40
2017-11-09T18:30:04.811Z,5.40
2017-11-09T18:32:34.127Z,5.30
2017-11-09T18:35:03.381Z,5.30
2017-11-09T18:37:32.840Z,5.20
2017-11-09T18:40:02.087Z,5.30
2017-11-09T18:42:32.083Z,5.20
2017-11-09T18:45:01.353Z,5.10
2017-11-09T18:47:31.407Z,5.00
2017-11-09T18:50:00.662Z,5.00
2017-11-09T18:52:29.925Z,5.00
2017-11-09T18:54:59.226Z,5.00
2017-11-09T18:57:28.460Z,5.00
2017-11-09T18:59:59.499Z,4.90
2017-11-09T19:02:28.767Z,4.90
2017-11-09T19:04:58.235Z,4.90
2017-11-09T19:07:28.292Z,4.80
2017-11-09T19:09:57.562Z,4.80
2017-11-09T19:12:27.619Z,4.70
2017-11-09T19:14:56.912Z,4.70
2017-11-09T19:17:26.299Z,4.80
2017-11-09T19:19:55.581Z,4.80
2017-11-09T19:22:25.616Z,4.80
2017-11-09T19:24:54.866Z,4.80
2017-11-09T19:27:24.797Z,4.80
2017-11-09T19:29:55.674Z,4.80
2017-11-09T19:32:25.072Z,4.80
2017-11-09T19:34:54.345Z,4.80
2017-11-09T19:37:23.606Z,4.80
2017-11-09T19:39:52.877Z,4.70
2017-11-09T19:42:22.136Z,4.70
2017-11-09T19:44:51.409Z,4.70
2017-11-09T19:47:21.400Z,4.70
2017-11-09T19:49:50.656Z,4.70
2017-11-09T19:52:19.980Z,4.70
2017-11-09T19:54:50.021Z,4.80
2017-11-09T19:57:19.281Z,4.80
2017-11-09T19:59:48.545Z,4.80
2017-11-09T20:02:17.849Z,4.90
2017-11-09T20:04:47.126Z,4.90
2017-11-09T20:07:17.169Z,5.20
2017-11-09T20:09:46.424Z,5.10
2017-11-09T20:12:15.702Z,5.30
2017-11-09T20:14:45.143Z,5.40
2017-11-09T20:17:15.157Z,5.60
2017-11-09T20:19:44.433Z,5.60
2017-11-09T20:22:13.693Z,5.70
2017-11-09T20:24:43.065Z,5.80
2017-11-09T20:27:12.407Z,5.90
2017-11-09T20:29:41.780Z,6.00
2017-11-09T20:32:11.047Z,6.10
2017-11-09T20:34:40.323Z,6.10
2017-11-09T20:37:09.599Z,6.20
2017-11-09T20:39:38.882Z,6.10
2017-11-09T20:42:08.163Z,6.10
2017-11-09T20:44:37.411Z,6.20
2017-11-09T20:47:06.678Z,6.30
2017-11-09T20:49:35.998Z,6.30
2017-11-09T20:52:05.247Z,6.30
2017-11-09T20:54:35.298Z,6.40
2017-11-09T20:57:04.555Z,6.40
2017-11-09T20:59:33.825Z,6.40
2017-11-09T21:02:03.306Z,6.50
2017-11-09T21:04:33.406Z,6.60
2017-11-09T21:07:03.440Z,6.60
2017-11-09T21:09:32.702Z,6.60
2017-11-09T21:12:01.973Z,6.60
2017-11-09T21:14:31.219Z,6.60
2017-11-09T21:17:01.282Z,6.80
2017-11-09T21:19:30.522Z,6.70
2017-11-09T21:21:59.781Z,6.80
2017-11-09T21:24:29.032Z,6.80
2017-11-09T21:26:58.308Z,6.70
2017-11-09T21:29:27.592Z,6.70
2017-11-09T21:31:56.969Z,6.70
2017-11-09T21:34:27.086Z,6.70
2017-11-09T21:36:57.721Z,6.70
2017-11-09T21:39:27.865Z,6.60
2017-11-09T21:41:57.139Z,6.60
2017-11-09T21:44:26.539Z,6.60
2017-11-09T21:46:56.603Z,6.50
2017-11-09T21:49:25.888Z,6.40
2017-11-09T21:51:55.156Z,6.30
2017-11-09T21:54:24.411Z,6.20
2017-11-09T21:56:53.677Z,6.10
2017-11-09T21:59:22.956Z,6.10
2017-11-09T22:01:52.203Z,6.10
2017-11-09T22:04:21.459Z,6.00
2017-11-09T22:06:50.770Z,5.90
2017-11-09T22:09:20.186Z,5.80
2017-11-09T22:11:49.451Z,5.70
2017-11-09T22:14:19.468Z,5.80
2017-11-09T22:16:49.535Z,5.80
2017-11-09T22:19:18.810Z,5.80
2017-11-09T22:21:48.823Z,5.80
2017-11-09T22:24:18.351Z,5.80
2017-11-09T22:26:47.588Z,5.60
2017-11-09T22:29:16.844Z,5.50
2017-11-09T22:31:46.115Z,5.40
2017-11-09T22:34:16.255Z,5.30
2017-11-09T22:36:46.389Z,5.30
2017-11-09T22:39:15.655Z,5.30
2017-11-09T22:41:44.908Z,5.20
2017-11-09T22:44:14.189Z,5.30
2017-11-09T22:46:43.593Z,5.30
2017-11-09T22:49:12.921Z,5.30
2017-11-09T22:51:42.200Z,5.30
2017-11-09T22:54:11.449Z,5.20
2017-11-09T22:56:40.820Z,5.20
2017-11-09T22:59:10.251Z,5.30
2017-11-09T23:01:39.705Z,5.30
2017-11-09T23:04:09.103Z,5.20
2017-11-09T23:06:39.128Z,5.30
2017-11-09T23:09:08.433Z,5.30
2017-11-09T23:11:37.696Z,5.40
2017-11-09T23:14:06.955Z,5.50
2017-11-09T23:16:36.409Z,5.50
2017-11-09T23:19:06.460Z,5.40
2017-11-09T23:21:35.749Z,5.40
2017-11-09T23:24:05.016Z,5.30
2017-11-09T23:26:34.318Z,5.30
2017-11-09T23:29:06.538Z,5.30
2017-11-09T23:31:35.828Z,5.30
2017-11-09T23:34:06.571Z,5.20
2017-11-09T23:36:35.835Z,5.20
2017-11-09T23:39:05.109Z,5.10
2017-11-09T23:41:34.370Z,5.10
2017-11-09T23:44:03.655Z,5.10
2017-11-09T23:46:33.693Z,5.20
2017-11-09T23:49:03.004Z,5.20
2017-11-09T23:51:32.260Z,5.30
2017-11-09T23:54:01.668Z,5.40
2017-11-09T23:56:31.696Z,5.40
2017-11-09T23:59:00.940Z,5.40
